Winston, MT

12:51 PM MDT on May 28, 2015 (GMT -0600)
RAWS | | Change Station
CLOSE
Current Station
Personal Weather Station
Location: Winston, MT
Elevation: 4370 ft
Nearby Weather Stations

Elev 4370 ft 46.33 °N, 111.59 °W | Updated 48 minutes ago

Overcast
Overcast
55 °F
Feels Like 55 °F
N
5
Wind Variable Wind from NNW
Gusts 18.0 mph

Today
High -- | Low -- °F
--% Chance of Precip.
Yesterday
High -- | Low -- °F
Precip. -- in
5:40 AM 9:07 PM
Waxing Gibbous, 77% visible
Pressure 30.16 in
Visibility 3.0 miles
Clouds Scattered Clouds 500 ft
Mostly Cloudy 3300 ft
Overcast 4300 ft
Dew Point 50 °F
Humidity 82%
Rainfall in
Snow Depth Not available.
UV 3 out of 12
Pollen 2.70 out of 12
Air Quality Not available.
Flu Activity Sporadic
SPECI KHLN 281843Z 35012KT 3SM -RA BR SCT005 BKN033 OVC043 11/09 A3016 RMK AO2 RAB1755 P0020 T01110094

More Conditions Fewer Conditions

Pressure 30.16 in
Visibility 3.0 miles
Clouds Scattered Clouds 500 ft
Mostly Cloudy 3300 ft
Overcast 4300 ft
Dew Point 50 °F
Humidity 82%
Rainfall in
Snow Depth Not available.
UV 3 out of 12
Pollen 2.70 out of 12
Air Quality Not available.
Flu Activity Sporadic
SPECI KHLN 281843Z 35012KT 3SM -RA BR SCT005 BKN033 OVC043 11/09 A3016 RMK AO2 RAB1755 P0020 T01110094

More Conditions Fewer Conditions

10-Day Weather Forecast

Almanac

Astronomy

May. 28, 2015 Rise Set
Actual Time
Civil Twilight
Nautical Twilight
Astronomical Twilight
Moon
Length of Visible Light
Length of Day
Tomorrow will be .
, % of the Moon is Illuminated

Today's Extremes

State Highs State Lows

Community

WunderPhotos

Upload Photos

1,825,015 photos uploaded!

WunderBlogs® & News

Nearby

Air Quality

  Air Quality AQ Index Pollutant
Not available.

Snow Depth

Station Depth Elevation

Earthquake Activity

City Distance Mag. Time & Date
Minimum magnitude displayed is 2.5.

Coastal Water Temperatures

Place Temperature

Stations

Nearby Weather Stations

Station Location Temp. Windchill Dew Point Humidity Wind Precip. Elev Updated Type